createdAt,value
2022-11-28T00:01:42.978Z,45.50
2022-11-28T00:04:11.848Z,47.90
2022-11-28T00:06:45.264Z,46.70
2022-11-28T00:09:14.442Z,49.60
2022-11-28T00:11:44.414Z,52.60
2022-11-28T00:14:12.784Z,50.70
2022-11-28T00:16:40.705Z,53.00
2022-11-28T00:19:09.270Z,51.00
2022-11-28T00:21:36.976Z,56.10
2022-11-28T00:24:04.937Z,55.80
2022-11-28T00:26:36.199Z,57.70
2022-11-28T00:29:06.226Z,58.70
2022-11-28T00:31:42.038Z,59.80
2022-11-28T00:34:12.511Z,64.90
2022-11-28T00:36:40.621Z,66.30
2022-11-28T00:39:08.356Z,71.20
2022-11-28T00:41:36.113Z,67.20
2022-11-28T00:44:04.323Z,67.40
2022-11-28T00:46:32.017Z,72.10
2022-11-28T00:49:00.134Z,64.40
2022-11-28T00:51:30.885Z,58.60
2022-11-28T00:54:01.033Z,51.30
2022-11-28T00:56:32.416Z,48.70
2022-11-28T00:59:00.656Z,53.00
2022-11-28T01:01:33.616Z,51.40
2022-11-28T01:04:03.768Z,50.10
2022-11-28T01:06:35.370Z,53.90
2022-11-28T01:09:07.278Z,56.30
2022-11-28T01:11:35.627Z,52.80
2022-11-28T01:14:03.802Z,52.00
2022-11-28T01:16:31.767Z,55.60
2022-11-28T01:18:59.629Z,59.10
2022-11-28T01:21:27.948Z,57.10
2022-11-28T01:23:55.952Z,55.00
2022-11-28T01:26:27.184Z,55.70
2022-11-28T01:28:55.929Z,60.90
2022-11-28T01:31:26.964Z,60.20
2022-11-28T01:33:58.802Z,61.80
2022-11-28T01:36:27.281Z,61.00
2022-11-28T01:38:55.387Z,68.30
2022-11-28T01:41:27.602Z,68.50
2022-11-28T01:44:31.722Z,64.90
2022-11-28T01:46:59.502Z,66.00
2022-11-28T01:49:34.737Z,63.80
2022-11-28T01:52:08.178Z,66.50
2022-11-28T01:54:37.689Z,61.00
2022-11-28T01:57:09.522Z,68.50
2022-11-28T01:59:41.819Z,63.70
2022-11-28T02:02:18.164Z,68.10
2022-11-28T02:04:46.812Z,64.10
2022-11-28T02:07:14.940Z,64.80
2022-11-28T02:09:42.780Z,63.70
2022-11-28T02:12:27.976Z,59.60
2022-11-28T02:15:11.888Z,63.60
2022-11-28T02:18:01.512Z,65.60
2022-11-28T02:21:04.023Z,62.00
2022-11-28T02:23:54.141Z,60.30
2022-11-28T02:26:54.412Z,62.00
2022-11-28T02:29:48.719Z,58.90
2022-11-28T02:32:26.631Z,57.90
2022-11-28T02:35:04.485Z,55.80
2022-11-28T02:37:46.861Z,63.90
2022-11-28T02:40:25.047Z,54.60
2022-11-28T02:43:08.319Z,52.40
2022-11-28T02:45:46.934Z,52.80
2022-11-28T02:48:31.689Z,52.10
2022-11-28T02:51:08.948Z,45.30
2022-11-28T02:53:37.804Z,58.30
2022-11-28T02:56:05.972Z,53.60
2022-11-28T02:58:33.657Z,51.40
2022-11-28T03:01:01.599Z,50.10
2022-11-28T03:03:55.927Z,48.10
2022-11-28T03:06:37.597Z,47.80
2022-11-28T03:09:34.375Z,47.70
2022-11-28T03:12:37.161Z,48.60
2022-11-28T03:15:07.708Z,55.10
2022-11-28T03:17:54.810Z,53.20
2022-11-28T03:23:17.807Z,54.10
2022-11-28T03:25:57.677Z,52.40
2022-11-28T03:28:38.108Z,61.50
2022-11-28T03:31:13.920Z,59.40
2022-11-28T03:33:49.014Z,55.60
2022-11-28T03:36:22.157Z,50.90
2022-11-28T03:38:56.748Z,54.60
2022-11-28T03:41:34.368Z,56.30
2022-11-28T03:44:05.301Z,51.60
2022-11-28T03:46:41.651Z,57.90
2022-11-28T03:49:11.763Z,54.70
2022-11-28T03:51:46.762Z,46.70
2022-11-28T03:54:23.090Z,48.60
2022-11-28T03:57:04.746Z,47.70
2022-11-28T03:59:51.073Z,48.40
2022-11-28T04:02:41.566Z,45.20
2022-11-28T04:05:34.466Z,47.30
2022-11-28T04:08:21.835Z,40.80
2022-11-28T04:11:02.113Z,40.50
2022-11-28T04:13:39.960Z,44.90
2022-11-28T04:16:19.127Z,43.40
2022-11-28T04:19:02.005Z,43.10
2022-11-28T04:21:35.876Z,44.90
2022-11-28T04:24:09.583Z,47.70
2022-11-28T04:26:45.433Z,52.10
2022-11-28T04:29:17.277Z,51.30
2022-11-28T04:31:46.484Z,52.70
2022-11-28T04:34:18.143Z,50.80
2022-11-28T04:36:48.074Z,54.00
2022-11-28T04:39:20.027Z,51.10
2022-11-28T04:41:53.627Z,52.20
2022-11-28T04:44:29.746Z,52.70
2022-11-28T04:46:58.393Z,55.80
2022-11-28T04:49:28.337Z,57.20
2022-11-28T04:52:08.493Z,54.20
2022-11-28T04:55:05.253Z,62.90
2022-11-28T04:57:37.573Z,61.10
2022-11-28T05:00:09.284Z,70.00
2022-11-28T05:02:39.139Z,71.80
2022-11-28T05:05:11.425Z,71.50
2022-11-28T05:07:39.370Z,74.10
2022-11-28T05:10:07.864Z,77.90
2022-11-28T05:12:35.747Z,77.20
2022-11-28T05:15:04.597Z,75.40
2022-11-28T05:17:32.331Z,67.70
2022-11-28T05:20:00.170Z,61.20
2022-11-28T05:22:28.041Z,62.70
2022-11-28T05:24:55.703Z,58.20
2022-11-28T05:27:23.451Z,63.30
2022-11-28T05:29:53.250Z,66.80
2022-11-28T05:32:21.218Z,70.10
2022-11-28T05:34:49.542Z,68.20
2022-11-28T05:37:17.428Z,69.30
2022-11-28T05:39:45.455Z,69.50
2022-11-28T05:42:13.301Z,72.90
2022-11-28T05:44:41.041Z,81.40
2022-11-28T05:47:08.865Z,71.90
2022-11-28T05:49:36.578Z,77.20
2022-11-28T05:52:04.788Z,81.80
2022-11-28T05:54:32.646Z,77.60
2022-11-28T05:57:00.600Z,80.70
2022-11-28T05:59:28.507Z,77.90
2022-11-28T06:01:56.369Z,84.10
2022-11-28T06:04:24.238Z,89.60
2022-11-28T06:06:52.026Z,93.10
2022-11-28T06:09:24.547Z,93.70
2022-11-28T06:11:53.567Z,112.80
2022-11-28T06:14:21.296Z,102.00
2022-11-28T06:16:49.286Z,98.10
2022-11-28T06:19:17.899Z,100.20
2022-11-28T06:21:45.857Z,101.30
2022-11-28T06:24:13.586Z,105.60
2022-11-28T06:26:41.378Z,97.60
2022-11-28T06:29:09.077Z,103.80
2022-11-28T06:31:37.288Z,90.00
2022-11-28T06:34:05.074Z,90.60
2022-11-28T06:36:33.458Z,92.10
2022-11-28T06:39:01.271Z,85.10
2022-11-28T06:41:29.211Z,76.90
2022-11-28T06:43:57.210Z,73.70
2022-11-28T06:46:25.106Z,68.90
2022-11-28T06:48:55.484Z,72.30
2022-11-28T06:51:23.323Z,70.90
2022-11-28T06:53:51.172Z,73.30
2022-11-28T06:56:20.430Z,70.50
2022-11-28T06:58:55.119Z,71.40
2022-11-28T07:01:24.932Z,73.00
2022-11-28T07:03:54.463Z,73.80
2022-11-28T07:06:24.470Z,76.20
2022-11-28T07:08:53.903Z,82.40
2022-11-28T07:11:24.606Z,80.30
2022-11-28T07:13:54.106Z,85.90
2022-11-28T07:16:35.443Z,76.70
2022-11-28T07:19:05.189Z,82.10
2022-11-28T07:21:37.063Z,79.40
2022-11-28T07:24:06.379Z,74.40
2022-11-28T07:26:38.390Z,75.60
2022-11-28T07:29:07.530Z,77.10
2022-11-28T07:31:40.258Z,78.00
2022-11-28T07:34:10.653Z,78.80
2022-11-28T07:36:47.375Z,80.00
2022-11-28T07:39:18.539Z,70.00
2022-11-28T07:41:51.063Z,77.60
2022-11-28T07:44:34.628Z,75.70
2022-11-28T07:47:03.030Z,65.30
2022-11-28T07:49:48.904Z,64.50
2022-11-28T07:52:21.065Z,67.10
2022-11-28T07:54:50.319Z,61.40
2022-11-28T07:57:19.243Z,66.90
2022-11-28T07:59:47.292Z,65.80
2022-11-28T08:02:15.942Z,70.60
2022-11-28T08:04:49.585Z,71.80
2022-11-28T08:07:20.767Z,73.50
2022-11-28T08:09:48.742Z,77.00
2022-11-28T08:12:17.239Z,67.90
2022-11-28T08:14:45.753Z,64.10
2022-11-28T08:17:13.765Z,64.30
2022-11-28T08:19:42.531Z,58.00
2022-11-28T08:22:12.040Z,56.20
2022-11-28T08:24:44.984Z,42.30
2022-11-28T08:27:14.227Z,43.60
2022-11-28T08:29:42.559Z,43.30
2022-11-28T08:32:11.005Z,43.80
2022-11-28T08:34:40.374Z,44.50
2022-11-28T08:37:08.290Z,41.70
2022-11-28T08:39:36.178Z,43.60
2022-11-28T08:42:04.191Z,50.60
2022-11-28T08:44:32.187Z,54.00
2022-11-28T08:47:00.414Z,53.30
2022-11-28T08:49:28.209Z,56.30
2022-11-28T08:51:55.964Z,59.00
2022-11-28T08:54:23.632Z,55.90
2022-11-28T08:56:51.420Z,52.10
2022-11-28T08:59:19.184Z,42.80
2022-11-28T09:01:47.060Z,56.80
2022-11-28T09:04:15.054Z,48.00
2022-11-28T09:06:42.770Z,42.40
2022-11-28T09:09:10.917Z,54.40
2022-11-28T09:11:39.119Z,45.40
2022-11-28T09:14:07.516Z,51.10
2022-11-28T09:16:37.430Z,46.10
2022-11-28T09:19:09.253Z,45.50
2022-11-28T09:21:37.212Z,46.40
2022-11-28T09:24:05.521Z,41.30
2022-11-28T09:26:35.793Z,41.20
2022-11-28T09:29:03.582Z,37.60
2022-11-28T09:31:31.379Z,36.40
2022-11-28T09:34:03.697Z,30.70
2022-11-28T09:36:51.005Z,31.60
2022-11-28T09:40:12.521Z,30.30
2022-11-28T09:42:51.554Z,27.40
2022-11-28T09:45:24.642Z,34.30
2022-11-28T09:47:58.018Z,31.20
2022-11-28T09:50:30.549Z,21.40
2022-11-28T09:53:09.368Z,19.90
2022-11-28T09:56:09.225Z,20.80
2022-11-28T10:20:57.453Z,12.60
2022-11-28T10:23:49.449Z,14.30
2022-11-28T10:26:36.547Z,13.60
2022-11-28T10:29:49.167Z,20.70
2022-11-28T10:36:15.717Z,13.20
2022-11-28T10:39:32.718Z,16.10
2022-11-28T10:42:22.338Z,15.30
2022-11-28T10:45:48.296Z,16.40
2022-11-28T10:48:40.339Z,18.70
2022-11-28T10:51:24.651Z,15.60
2022-11-28T10:54:19.146Z,12.70
2022-11-28T10:57:10.021Z,15.30
2022-11-28T11:00:01.948Z,14.20
2022-11-28T11:02:40.867Z,19.20
2022-11-28T11:05:16.803Z,15.70
2022-11-28T11:08:00.620Z,17.90
2022-11-28T11:10:58.376Z,15.20
2022-11-28T11:13:55.885Z,14.90
2022-11-28T11:16:24.142Z,15.20
2022-11-28T11:18:55.875Z,14.00
2022-11-28T11:21:26.487Z,17.30
2022-11-28T11:24:15.818Z,17.90
2022-11-28T11:26:48.855Z,16.30
2022-11-28T11:29:35.519Z,14.50
2022-11-28T11:32:06.555Z,19.60
2022-11-28T11:34:42.956Z,16.20
2022-11-28T11:37:44.539Z,18.40
2022-11-28T11:40:25.755Z,16.80
2022-11-28T11:42:57.944Z,18.00
2022-11-28T11:45:38.019Z,18.70
2022-11-28T11:48:05.939Z,20.50
2022-11-28T11:50:33.743Z,17.10
2022-11-28T11:53:11.580Z,21.90
2022-11-28T11:55:52.559Z,15.80
2022-11-28T11:58:29.914Z,18.40
2022-11-28T12:01:37.509Z,20.50
2022-11-28T12:07:35.152Z,19.40
2022-11-28T12:10:57.314Z,15.90
2022-11-28T12:13:47.310Z,15.90
2022-11-28T12:17:00.611Z,19.40
2022-11-28T12:20:33.300Z,17.40
2022-11-28T12:23:36.420Z,15.00
2022-11-28T12:27:39.399Z,16.30
2022-11-28T12:30:24.560Z,15.60
2022-11-28T12:33:23.575Z,15.80
2022-11-28T12:36:13.223Z,17.70
2022-11-28T12:39:00.351Z,14.70
2022-11-28T12:41:52.204Z,17.60
2022-11-28T12:44:36.010Z,16.60
2022-11-28T12:47:36.008Z,16.50
2022-11-28T12:50:26.656Z,17.80
2022-11-28T12:53:17.028Z,17.40
2022-11-28T12:56:03.575Z,18.10
2022-11-28T12:58:43.838Z,17.50
2022-11-28T13:01:37.769Z,18.80
2022-11-28T13:04:57.852Z,15.20
2022-11-28T13:07:40.965Z,14.80
2022-11-28T13:10:47.269Z,18.30
2022-11-28T13:13:23.941Z,17.50
2022-11-28T13:16:08.082Z,21.80
2022-11-28T13:18:48.787Z,18.80
2022-11-28T13:21:37.730Z,20.30
2022-11-28T13:24:18.340Z,20.60
2022-11-28T13:27:00.412Z,21.60
2022-11-28T13:29:48.019Z,21.70
2022-11-28T13:32:35.478Z,16.80
2022-11-28T14:13:48.180Z,24.80
2022-11-28T14:16:39.604Z,20.90
2022-11-28T14:19:18.234Z,21.80
2022-11-28T14:22:00.622Z,21.60
2022-11-28T14:24:49.429Z,21.20
2022-11-28T14:27:29.254Z,18.10
2022-11-28T14:29:58.831Z,21.60
2022-11-28T14:32:35.695Z,20.40
2022-11-28T14:35:06.967Z,19.10
2022-11-28T14:37:48.439Z,18.50
2022-11-28T14:40:52.387Z,22.50
2022-11-28T14:43:30.979Z,20.20
2022-11-28T14:46:22.297Z,20.90
2022-11-28T14:49:15.192Z,19.70
2022-11-28T14:52:37.231Z,21.30
2022-11-28T14:55:18.376Z,17.50
2022-11-28T14:58:03.052Z,18.70
2022-11-28T15:00:47.247Z,19.00
2022-11-28T15:03:55.012Z,17.90
2022-11-28T15:06:32.033Z,18.30
2022-11-28T15:09:12.906Z,16.70
2022-11-28T15:11:58.765Z,20.70
2022-11-28T15:14:28.964Z,15.70
2022-11-28T15:17:02.117Z,16.70
2022-11-28T15:19:38.549Z,18.30
2022-11-28T15:22:06.412Z,18.90
2022-11-28T15:24:37.521Z,18.30
2022-11-28T15:27:26.206Z,16.70
2022-11-28T15:29:57.383Z,16.80
2022-11-28T15:32:27.625Z,15.50
2022-11-28T15:35:00.925Z,21.30
2022-11-28T15:37:32.354Z,18.40
2022-11-28T15:40:04.338Z,15.40
2022-11-28T15:42:35.067Z,16.50
2022-11-28T15:45:11.098Z,18.80
2022-11-28T15:47:40.032Z,17.60
2022-11-28T15:50:18.311Z,22.20
2022-11-28T15:52:58.451Z,15.00
2022-11-28T15:55:30.654Z,19.70
2022-11-28T15:58:20.011Z,27.30
2022-11-28T16:00:56.482Z,25.20
2022-11-28T16:03:28.122Z,20.30
2022-11-28T16:05:58.342Z,20.70
2022-11-28T16:08:34.622Z,15.90
2022-11-28T16:11:05.121Z,19.30
2022-11-28T16:13:33.635Z,23.90
2022-11-28T16:16:04.348Z,20.00
2022-11-28T16:18:32.537Z,18.60
2022-11-28T16:21:01.854Z,19.60
2022-11-28T16:23:35.398Z,19.30
2022-11-28T16:26:08.229Z,17.20
2022-11-28T16:28:38.951Z,17.90
2022-11-28T16:31:23.772Z,17.80
2022-11-28T16:33:52.157Z,18.60
2022-11-28T16:36:24.860Z,25.20
2022-11-28T16:39:04.480Z,18.80
2022-11-28T16:41:33.087Z,18.90
2022-11-28T16:44:05.114Z,16.20
2022-11-28T16:46:38.168Z,18.10
2022-11-28T16:49:33.696Z,17.00
2022-11-28T16:52:40.824Z,18.80
2022-11-28T16:55:40.904Z,17.80
2022-11-28T16:58:15.495Z,19.80
2022-11-28T17:00:59.310Z,23.10
2022-11-28T17:03:44.647Z,20.50
2022-11-28T17:06:17.091Z,22.90
2022-11-28T17:08:44.924Z,23.60
2022-11-28T17:11:15.215Z,21.90
2022-11-28T17:13:43.247Z,28.50
2022-11-28T17:16:24.096Z,24.10
2022-11-28T17:18:52.233Z,30.60
2022-11-28T17:21:33.473Z,23.40
2022-11-28T17:24:01.911Z,21.00
2022-11-28T17:26:29.751Z,32.00
2022-11-28T17:28:59.180Z,20.70
2022-11-28T17:31:26.961Z,22.30
2022-11-28T17:33:54.629Z,22.60
2022-11-28T17:36:22.379Z,22.40
2022-11-28T17:38:50.090Z,22.50
2022-11-28T17:41:18.279Z,24.10
2022-11-28T17:43:45.965Z,25.10
2022-11-28T17:46:14.511Z,25.30
2022-11-28T17:48:42.365Z,30.10
2022-11-28T17:51:10.718Z,28.90
2022-11-28T17:53:38.645Z,30.70
2022-11-28T17:56:06.717Z,32.60
2022-11-28T17:58:34.419Z,33.90
2022-11-28T18:01:02.397Z,34.70
2022-11-28T18:03:30.207Z,31.10
2022-11-28T18:05:58.163Z,38.90
2022-11-28T18:08:26.007Z,28.20
2022-11-28T18:11:06.683Z,23.30
2022-11-28T18:13:34.731Z,22.70
2022-11-28T18:16:03.383Z,23.20
2022-11-28T18:18:32.165Z,24.70
2022-11-28T18:21:01.044Z,27.30
2022-11-28T18:23:29.043Z,28.10
2022-11-28T18:25:57.580Z,25.50
2022-11-28T18:28:25.390Z,26.40
2022-11-28T18:30:53.893Z,29.30
2022-11-28T18:33:21.621Z,27.10
2022-11-28T18:35:49.460Z,30.00
2022-11-28T18:38:17.237Z,30.10
2022-11-28T18:40:45.085Z,29.90
2022-11-28T18:43:12.898Z,32.00
2022-11-28T18:45:41.032Z,30.60
2022-11-28T18:48:08.717Z,29.50
2022-11-28T18:50:36.432Z,30.10
2022-11-28T18:53:04.467Z,30.00
2022-11-28T18:55:32.619Z,29.20
2022-11-28T18:58:00.478Z,28.10
2022-11-28T19:00:28.651Z,32.30
2022-11-28T19:02:56.402Z,25.90
2022-11-28T19:05:24.128Z,21.30
2022-11-28T19:07:52.683Z,25.30
2022-11-28T19:10:20.977Z,25.30
2022-11-28T19:12:48.778Z,25.90
2022-11-28T19:15:17.139Z,23.00
2022-11-28T19:17:45.102Z,25.30
2022-11-28T19:20:14.320Z,29.10
2022-11-28T19:22:42.006Z,24.60
2022-11-28T19:25:09.781Z,23.30
2022-11-28T19:27:37.568Z,26.50
2022-11-28T19:30:06.432Z,27.00
2022-11-28T19:32:36.291Z,26.50
2022-11-28T19:35:04.706Z,28.60
2022-11-28T19:37:32.496Z,37.50
2022-11-28T19:40:02.799Z,33.90
2022-11-28T19:42:32.015Z,34.70
2022-11-28T19:44:59.698Z,31.00
2022-11-28T19:47:28.955Z,40.10
2022-11-28T19:49:57.028Z,45.00
2022-11-28T19:52:25.206Z,40.70
2022-11-28T19:54:52.996Z,40.20
2022-11-28T19:57:20.862Z,37.60
2022-11-28T19:59:51.156Z,41.60
2022-11-28T20:02:21.639Z,41.00
2022-11-28T20:04:49.554Z,39.20
2022-11-28T20:07:17.420Z,39.40
2022-11-28T20:09:45.552Z,37.90
2022-11-28T20:12:15.809Z,38.20
2022-11-28T20:14:43.521Z,37.20
2022-11-28T20:17:12.145Z,39.70
2022-11-28T20:19:39.840Z,42.70
2022-11-28T20:22:07.903Z,44.70
2022-11-28T20:24:35.895Z,33.00
2022-11-28T20:27:03.680Z,36.80
2022-11-28T20:29:31.629Z,43.20
2022-11-28T20:31:59.532Z,40.00
2022-11-28T20:34:27.622Z,36.30
2022-11-28T20:36:55.744Z,34.20
2022-11-28T20:39:24.323Z,30.90
2022-11-28T20:41:52.091Z,34.80
2022-11-28T20:44:20.324Z,30.90
2022-11-28T20:46:49.836Z,30.90
2022-11-28T20:49:18.354Z,28.60
2022-11-28T20:51:46.164Z,29.00
2022-11-28T20:54:14.358Z,29.00
2022-11-28T20:57:19.250Z,30.30
2022-11-28T20:59:32.238Z,29.70
2022-11-28T21:02:00.007Z,25.00
2022-11-28T21:04:27.744Z,27.00
2022-11-28T21:06:55.917Z,28.20
2022-11-28T21:09:23.783Z,29.00
2022-11-28T21:11:57.592Z,25.40
2022-11-28T21:14:27.456Z,31.40
2022-11-28T21:16:56.185Z,32.00
2022-11-28T21:19:24.000Z,27.50
2022-11-28T21:21:51.846Z,26.20
2022-11-28T21:24:19.978Z,33.90
2022-11-28T21:26:52.963Z,24.60
2022-11-28T21:29:22.921Z,28.60
2022-11-28T21:31:50.895Z,32.60
2022-11-28T21:34:19.222Z,31.00
2022-11-28T21:36:47.390Z,32.30
2022-11-28T21:39:19.808Z,32.90
2022-11-28T21:41:48.032Z,31.00
2022-11-28T21:44:15.869Z,31.80
2022-11-28T21:46:43.582Z,35.50
2022-11-28T21:49:12.686Z,37.30
2022-11-28T21:51:40.749Z,31.90
2022-11-28T21:54:11.083Z,36.90
2022-11-28T21:56:39.085Z,33.30
2022-11-28T21:59:06.884Z,29.00
2022-11-28T22:01:35.120Z,38.70
2022-11-28T22:04:04.650Z,31.20
2022-11-28T22:06:32.941Z,31.50
2022-11-28T22:09:08.791Z,29.90
2022-11-28T22:11:38.829Z,24.40
2022-11-28T22:14:06.828Z,23.50
2022-11-28T22:16:35.301Z,28.70
2022-11-28T22:19:04.233Z,22.60
2022-11-28T22:24:21.306Z,22.40
2022-11-28T22:26:50.184Z,25.20
2022-11-28T22:29:19.161Z,22.90
2022-11-28T22:31:47.047Z,23.50
2022-11-28T22:34:15.267Z,24.30
2022-11-28T22:36:43.170Z,25.60
2022-11-28T22:39:11.706Z,22.70
2022-11-28T22:41:39.957Z,23.40
2022-11-28T22:44:11.558Z,23.90
2022-11-28T22:46:39.862Z,23.90
2022-11-28T22:49:10.541Z,25.10
2022-11-28T22:51:39.212Z,22.30
2022-11-28T22:54:07.483Z,27.80
2022-11-28T22:56:35.279Z,29.10
2022-11-28T22:59:05.075Z,28.50
2022-11-28T23:01:35.279Z,30.20
2022-11-28T23:04:03.319Z,28.70
2022-11-28T23:06:34.314Z,27.90
2022-11-28T23:09:06.464Z,28.80
2022-11-28T23:11:36.955Z,34.50
2022-11-28T23:14:06.434Z,27.70
2022-11-28T23:16:37.612Z,31.80
2022-11-28T23:19:13.671Z,29.20
2022-11-28T23:21:43.652Z,30.40
2022-11-28T23:24:14.604Z,34.50
2022-11-28T23:26:43.846Z,31.30
2022-11-28T23:29:13.942Z,33.50
2022-11-28T23:31:44.303Z,34.00
2022-11-28T23:34:12.433Z,35.10
2022-11-28T23:36:43.102Z,36.50
2022-11-28T23:39:15.710Z,34.20
2022-11-28T23:41:43.952Z,29.50
2022-11-28T23:44:13.407Z,27.00
2022-11-28T23:46:41.988Z,31.60
2022-11-28T23:49:10.649Z,27.70
2022-11-28T23:51:40.495Z,25.10
2022-11-28T23:54:10.198Z,29.40
2022-11-28T23:56:40.242Z,23.80
2022-11-28T23:59:10.507Z,25.00
